Terminal Aerodrome Forecast
Issued by NWS Tampa Bay Area, FL

Home | Current Version | Previous Version | Text Only | Print | Product List | Glossary On
Versions: 1 2 3 4 5 6 7 8 9 10 11 12 13 14 15 16 17 18 19 20 21 22 23 24 25
000
FTUS42 KTBW 160500
TAFTPA
TAF
KTPA 160536Z 1606/1706 VRB02KT P6SM FEW150 SCT250
     FM161500 25006KT P6SM SCT035 BKN250
     FM161800 26007KT P6SM VCTS SCT035CB BKN250
     FM170000 29005KT P6SM VCTS BKN070CB BKN250=

USA.gov is the U.S. government's official web portal to all federal, state and local government web resources and services.